createdAt,value
2022-08-21T00:02:01.910Z,16.80
2022-08-21T00:04:29.415Z,16.80
2022-08-21T00:06:57.443Z,16.70
2022-08-21T00:09:24.194Z,16.70
2022-08-21T00:11:50.842Z,16.80
2022-08-21T00:14:17.618Z,16.70
2022-08-21T00:16:44.416Z,16.70
2022-08-21T00:19:11.260Z,16.70
2022-08-21T00:21:37.872Z,16.70
2022-08-21T00:24:04.858Z,16.70
2022-08-21T00:26:31.662Z,16.70
2022-08-21T00:28:58.986Z,16.70
2022-08-21T00:31:25.983Z,16.70
2022-08-21T00:33:52.748Z,16.60
2022-08-21T00:36:27.351Z,16.70
2022-08-21T00:38:53.969Z,16.60
2022-08-21T00:41:38.117Z,16.60
2022-08-21T00:44:11.090Z,16.60
2022-08-21T00:46:38.449Z,16.60
2022-08-21T00:49:06.356Z,16.50
2022-08-21T00:51:51.963Z,16.50
2022-08-21T00:54:21.551Z,16.50
2022-08-21T00:56:55.149Z,16.50
2022-08-21T00:59:23.415Z,16.50
2022-08-21T01:01:51.359Z,16.50
2022-08-21T01:04:18.754Z,16.50
2022-08-21T01:06:45.463Z,16.40
2022-08-21T01:09:12.926Z,16.40
2022-08-21T01:11:40.406Z,16.40
2022-08-21T01:14:07.085Z,16.30
2022-08-21T01:16:34.167Z,16.30
2022-08-21T01:19:00.802Z,16.30
2022-08-21T01:21:28.705Z,16.30
2022-08-21T01:23:57.343Z,16.20
2022-08-21T01:26:33.818Z,16.20
2022-08-21T01:29:08.188Z,16.20
2022-08-21T01:31:35.147Z,16.20
2022-08-21T01:34:02.228Z,16.20
2022-08-21T01:36:28.930Z,16.20
2022-08-21T01:38:55.947Z,16.20
2022-08-21T01:41:22.618Z,16.30
2022-08-21T01:43:49.389Z,16.20
2022-08-21T01:46:17.061Z,16.20
2022-08-21T01:48:44.277Z,16.20
2022-08-21T01:51:11.358Z,16.20
2022-08-21T01:53:38.251Z,16.20
2022-08-21T01:56:12.596Z,16.20
2022-08-21T01:58:42.774Z,16.20
2022-08-21T02:01:10.079Z,16.20
2022-08-21T02:03:37.485Z,16.20
2022-08-21T02:06:08.187Z,16.10
2022-08-21T02:08:35.325Z,16.10
2022-08-21T02:11:02.059Z,16.10
2022-08-21T02:13:28.771Z,16.00
2022-08-21T02:15:55.422Z,15.90
2022-08-21T02:18:22.011Z,15.90
2022-08-21T02:20:54.186Z,15.80
2022-08-21T02:23:26.549Z,15.80
2022-08-21T02:25:55.640Z,15.80
2022-08-21T02:28:22.280Z,15.80
2022-08-21T02:30:49.294Z,15.80
2022-08-21T02:33:16.245Z,15.80
2022-08-21T02:35:44.636Z,15.80
2022-08-21T02:38:15.691Z,15.80
2022-08-21T02:40:48.175Z,15.80
2022-08-21T02:43:18.785Z,15.70
2022-08-21T02:45:46.914Z,15.80
2022-08-21T02:48:17.096Z,15.70
2022-08-21T02:50:47.454Z,15.70
2022-08-21T02:53:15.396Z,15.70
2022-08-21T02:55:42.002Z,15.60
2022-08-21T02:58:09.107Z,15.60
2022-08-21T03:00:37.602Z,15.60
2022-08-21T03:03:05.277Z,15.60
2022-08-21T03:05:33.429Z,15.60
2022-08-21T03:08:02.835Z,15.60
2022-08-21T03:10:29.813Z,15.60
2022-08-21T03:12:56.629Z,15.50
2022-08-21T03:15:24.749Z,15.50
2022-08-21T03:17:52.164Z,15.50
2022-08-21T03:20:20.904Z,15.50
2022-08-21T03:22:52.828Z,15.50
2022-08-21T03:25:20.983Z,15.40
2022-08-21T03:27:59.242Z,15.40
2022-08-21T03:30:26.628Z,15.40
2022-08-21T03:32:53.590Z,15.40
2022-08-21T03:35:22.140Z,15.40
2022-08-21T03:37:48.785Z,15.40
2022-08-21T03:40:18.232Z,15.40
2022-08-21T03:42:45.192Z,15.40
2022-08-21T03:45:11.855Z,15.40
2022-08-21T03:47:38.479Z,15.40
2022-08-21T03:50:06.175Z,15.40
2022-08-21T03:52:32.819Z,15.30
2022-08-21T03:54:59.625Z,15.30
2022-08-21T03:57:26.234Z,15.30
2022-08-21T03:59:52.822Z,15.30
2022-08-21T04:02:21.824Z,15.30
2022-08-21T04:04:48.496Z,15.30
2022-08-21T04:07:15.129Z,15.30
2022-08-21T04:09:41.716Z,15.30
2022-08-21T04:12:08.639Z,15.30
2022-08-21T04:14:35.242Z,15.30
2022-08-21T04:17:01.894Z,15.30
2022-08-21T04:19:28.477Z,15.30
2022-08-21T04:21:56.640Z,15.30
2022-08-21T04:24:23.235Z,15.30
2022-08-21T04:26:49.822Z,15.30
2022-08-21T04:29:16.440Z,15.30
2022-08-21T04:31:43.082Z,15.30
2022-08-21T04:34:09.734Z,15.20
2022-08-21T04:36:36.350Z,15.20
2022-08-21T04:39:03.469Z,15.20
2022-08-21T04:41:30.271Z,15.10
2022-08-21T04:43:57.214Z,15.10
2022-08-21T04:46:24.163Z,15.00
2022-08-21T04:48:50.872Z,15.00
2022-08-21T04:51:22.934Z,15.00
2022-08-21T04:53:59.154Z,15.00
2022-08-21T04:56:49.217Z,15.00
2022-08-21T04:59:21.477Z,15.10
2022-08-21T05:01:49.975Z,15.00
2022-08-21T05:04:21.710Z,15.10
2022-08-21T05:06:49.694Z,15.10
2022-08-21T05:09:19.137Z,15.10
2022-08-21T05:11:46.362Z,15.10
2022-08-21T05:14:13.537Z,15.20
2022-08-21T05:16:40.221Z,15.20
2022-08-21T05:19:07.546Z,15.30
2022-08-21T05:21:36.116Z,15.30
2022-08-21T05:24:02.902Z,15.30
2022-08-21T05:26:29.539Z,15.40
2022-08-21T05:28:56.479Z,15.40
2022-08-21T05:31:24.384Z,15.40
2022-08-21T05:33:52.007Z,15.50
2022-08-21T05:36:19.767Z,15.60
2022-08-21T05:38:46.809Z,15.70
2022-08-21T05:41:13.630Z,15.70
2022-08-21T05:43:40.311Z,15.80
2022-08-21T05:46:08.046Z,15.90
2022-08-21T05:48:35.735Z,16.00
2022-08-21T05:51:08.035Z,16.10
2022-08-21T05:53:35.138Z,16.20
2022-08-21T05:56:02.331Z,16.30
2022-08-21T05:58:28.909Z,16.30
2022-08-21T06:00:55.510Z,16.40
2022-08-21T06:03:26.579Z,16.50
2022-08-21T06:05:53.919Z,16.60
2022-08-21T06:08:21.622Z,16.70
2022-08-21T06:10:49.762Z,16.80
2022-08-21T06:13:18.358Z,16.90
2022-08-21T06:15:45.979Z,17.00
2022-08-21T06:18:13.137Z,17.20
2022-08-21T06:20:40.384Z,17.20
2022-08-21T06:23:07.054Z,17.30
2022-08-21T06:25:34.112Z,17.40
2022-08-21T06:28:09.741Z,17.40
2022-08-21T06:30:37.866Z,17.50
2022-08-21T06:33:04.962Z,17.40
2022-08-21T06:35:31.755Z,17.50
2022-08-21T06:37:58.868Z,17.50
2022-08-21T06:40:27.494Z,17.60
2022-08-21T06:42:58.530Z,17.60
2022-08-21T06:45:25.657Z,17.80
2022-08-21T06:47:54.920Z,17.90
2022-08-21T06:50:21.542Z,18.10
2022-08-21T06:52:48.247Z,18.10
2022-08-21T06:55:21.699Z,18.20
2022-08-21T06:57:52.350Z,18.30
2022-08-21T07:00:19.906Z,18.50
2022-08-21T07:02:46.534Z,18.40
2022-08-21T07:05:17.722Z,18.40
2022-08-21T07:07:45.105Z,18.40
2022-08-21T07:10:21.782Z,18.50
2022-08-21T07:12:49.807Z,18.70
2022-08-21T07:15:18.156Z,18.80
2022-08-21T07:17:44.844Z,18.70
2022-08-21T07:20:11.593Z,18.90
2022-08-21T07:22:41.163Z,18.90
2022-08-21T07:25:08.797Z,19.00
2022-08-21T07:27:35.456Z,19.10
2022-08-21T07:30:02.115Z,19.10
2022-08-21T07:32:28.746Z,19.10
2022-08-21T07:34:55.360Z,19.20
2022-08-21T07:37:21.942Z,19.30
2022-08-21T07:39:48.572Z,19.30
2022-08-21T07:42:15.731Z,19.20
2022-08-21T07:44:42.370Z,19.30
2022-08-21T07:47:08.982Z,19.40
2022-08-21T07:49:35.668Z,19.60
2022-08-21T07:52:02.611Z,19.80
2022-08-21T07:54:33.360Z,20.00
2022-08-21T07:57:00.621Z,20.00
2022-08-21T07:59:27.239Z,20.10
2022-08-21T08:01:53.850Z,20.40
2022-08-21T08:04:24.453Z,20.60
2022-08-21T08:06:53.013Z,20.50
2022-08-21T08:09:19.623Z,20.60
2022-08-21T08:11:46.349Z,20.70
2022-08-21T08:14:13.047Z,20.70
2022-08-21T08:16:39.677Z,20.80
2022-08-21T08:19:06.346Z,20.90
2022-08-21T08:21:33.033Z,21.00
2022-08-21T08:24:19.493Z,21.00
2022-08-21T08:26:47.112Z,20.90
2022-08-21T08:29:20.918Z,20.70
2022-08-21T08:31:47.518Z,20.80
2022-08-21T08:34:23.487Z,21.00
2022-08-21T08:36:52.697Z,21.30
2022-08-21T08:39:26.530Z,21.30
2022-08-21T08:42:33.216Z,21.40
2022-08-21T08:45:09.329Z,21.50
2022-08-21T08:47:42.957Z,21.70
2022-08-21T08:50:44.388Z,21.70
2022-08-21T08:53:26.162Z,21.80
2022-08-21T08:55:53.891Z,21.80
2022-08-21T08:58:27.518Z,21.90
2022-08-21T09:00:55.739Z,21.90
2022-08-21T09:03:24.770Z,22.00
2022-08-21T09:06:03.397Z,22.30
2022-08-21T09:08:54.703Z,22.40
2022-08-21T09:11:42.021Z,22.10
2022-08-21T09:14:27.281Z,22.40
2022-08-21T09:17:14.422Z,22.50
2022-08-21T09:20:01.241Z,22.60
2022-08-21T09:22:51.511Z,22.70
2022-08-21T09:25:28.203Z,22.70
2022-08-21T09:27:55.986Z,22.70
2022-08-21T09:30:29.036Z,22.80
2022-08-21T09:32:56.182Z,22.90
2022-08-21T09:35:24.267Z,22.60
2022-08-21T09:37:54.910Z,22.60
2022-08-21T09:40:36.583Z,22.90
2022-08-21T09:43:19.398Z,23.20
2022-08-21T09:45:47.969Z,23.20
2022-08-21T09:48:26.882Z,23.20
2022-08-21T09:50:54.962Z,23.20
2022-08-21T09:53:30.633Z,23.30
2022-08-21T09:56:05.844Z,23.50
2022-08-21T09:58:35.094Z,23.40
2022-08-21T10:01:04.873Z,23.80
2022-08-21T10:03:31.615Z,23.90
2022-08-21T10:06:04.908Z,24.10
2022-08-21T10:08:38.036Z,24.10
2022-08-21T10:11:11.093Z,24.00
2022-08-21T10:14:03.470Z,24.10
2022-08-21T10:16:48.206Z,24.00
2022-08-21T10:19:44.514Z,24.20
2022-08-21T10:22:14.137Z,24.10
2022-08-21T10:25:07.481Z,24.10
2022-08-21T10:28:13.710Z,24.30
2022-08-21T10:31:04.269Z,24.50
2022-08-21T10:33:52.586Z,24.70
2022-08-21T10:36:48.091Z,24.70
2022-08-21T10:39:37.799Z,24.70
2022-08-21T10:42:28.331Z,24.80
2022-08-21T10:45:09.738Z,25.10
2022-08-21T10:48:11.379Z,24.90
2022-08-21T10:50:47.922Z,25.00
2022-08-21T10:53:33.631Z,25.40
2022-08-21T10:56:20.193Z,25.40
2022-08-21T10:58:57.361Z,25.40
2022-08-21T11:01:34.402Z,25.50
2022-08-21T11:04:49.613Z,25.00
2022-08-21T11:07:34.068Z,25.30
2022-08-21T11:10:13.905Z,25.60
2022-08-21T11:12:48.341Z,25.90
2022-08-21T11:15:29.058Z,26.00
2022-08-21T11:18:28.957Z,26.00
2022-08-21T11:21:26.015Z,26.20
2022-08-21T11:24:02.743Z,26.30
2022-08-21T11:26:39.409Z,26.60
2022-08-21T11:29:16.837Z,26.10
2022-08-21T11:32:00.123Z,25.70
2022-08-21T11:34:45.595Z,25.20
2022-08-21T11:37:41.678Z,25.40
2022-08-21T11:40:52.215Z,25.50
2022-08-21T11:43:45.530Z,25.70
2022-08-21T11:46:44.758Z,25.80
2022-08-21T11:49:30.228Z,26.00
2022-08-21T11:52:19.707Z,26.20
2022-08-21T11:55:28.728Z,26.20
2022-08-21T11:58:00.907Z,26.40
2022-08-21T12:00:34.150Z,26.40
2022-08-21T12:03:27.577Z,26.50
2022-08-21T12:06:00.805Z,26.80
2022-08-21T12:08:34.428Z,26.60
2022-08-21T12:11:15.217Z,26.30
2022-08-21T12:13:53.563Z,26.20
2022-08-21T12:16:34.317Z,26.10
2022-08-21T12:19:28.259Z,26.30
2022-08-21T12:22:06.989Z,26.40
2022-08-21T12:24:45.986Z,26.80
2022-08-21T12:27:21.261Z,26.70
2022-08-21T12:29:56.051Z,26.80
2022-08-21T12:32:27.926Z,26.90
2022-08-21T12:34:58.718Z,26.60
2022-08-21T12:37:43.496Z,26.80
2022-08-21T12:40:37.842Z,27.00
2022-08-21T12:43:06.105Z,26.90
2022-08-21T12:45:40.821Z,27.10
2022-08-21T12:48:19.737Z,27.40
2022-08-21T12:50:54.101Z,27.40
2022-08-21T12:53:49.602Z,27.30
2022-08-21T12:56:22.258Z,27.40
2022-08-21T12:58:52.064Z,27.60
2022-08-21T13:01:37.087Z,27.60
2022-08-21T13:04:11.894Z,27.60
2022-08-21T13:06:42.227Z,27.70
2022-08-21T13:09:12.439Z,27.40
2022-08-21T13:11:41.761Z,27.50
2022-08-21T13:14:27.031Z,27.50
2022-08-21T13:16:59.626Z,27.40
2022-08-21T13:19:26.791Z,27.50
2022-08-21T13:21:54.386Z,27.60
2022-08-21T13:24:42.396Z,27.60
2022-08-21T13:27:39.394Z,27.50
2022-08-21T13:30:08.948Z,27.50
2022-08-21T13:32:39.712Z,27.20
2022-08-21T13:35:13.038Z,27.50
2022-08-21T13:37:41.961Z,27.60
2022-08-21T13:40:13.059Z,27.60
2022-08-21T13:42:42.357Z,27.50
2022-08-21T13:45:19.495Z,27.50
2022-08-21T13:47:48.278Z,27.50
2022-08-21T13:50:16.848Z,27.50
2022-08-21T13:52:56.411Z,27.40
2022-08-21T13:55:23.763Z,27.30
2022-08-21T13:58:00.590Z,27.10
2022-08-21T14:00:29.341Z,27.00
2022-08-21T14:03:08.687Z,27.20
2022-08-21T14:05:38.975Z,27.30
2022-08-21T14:08:15.030Z,27.40
2022-08-21T14:10:49.050Z,27.30
2022-08-21T14:13:31.259Z,27.00
2022-08-21T14:16:02.159Z,27.00
2022-08-21T14:18:29.309Z,26.70
2022-08-21T14:21:08.047Z,26.80
2022-08-21T14:23:35.097Z,26.80
2022-08-21T14:26:05.154Z,26.90
2022-08-21T14:28:42.431Z,26.80
2022-08-21T14:31:19.628Z,26.90
2022-08-21T14:33:47.022Z,26.90
2022-08-21T14:36:13.979Z,26.70
2022-08-21T14:38:41.925Z,26.50
2022-08-21T14:41:18.334Z,26.70
2022-08-21T14:43:47.102Z,26.70
2022-08-21T14:46:21.252Z,26.70
2022-08-21T14:48:47.797Z,26.70
2022-08-21T14:51:14.812Z,26.60
2022-08-21T14:53:41.567Z,26.40
2022-08-21T14:56:08.466Z,26.30
2022-08-21T14:58:39.092Z,26.10
2022-08-21T15:01:08.308Z,26.00
2022-08-21T15:03:35.548Z,26.00
2022-08-21T15:06:04.186Z,26.00
2022-08-21T15:08:30.946Z,25.90
2022-08-21T15:11:11.569Z,25.70
2022-08-21T15:13:38.797Z,25.70
2022-08-21T15:16:05.818Z,25.60
2022-08-21T15:18:32.427Z,25.70
2022-08-21T15:20:59.077Z,25.60
2022-08-21T15:23:25.713Z,25.60
2022-08-21T15:25:53.679Z,25.70
2022-08-21T15:28:20.572Z,25.70
2022-08-21T15:30:47.220Z,25.70
2022-08-21T15:33:13.989Z,25.60
2022-08-21T15:35:41.122Z,25.50
2022-08-21T15:38:11.185Z,25.70
2022-08-21T15:40:40.257Z,25.70
2022-08-21T15:43:31.359Z,25.60
2022-08-21T15:46:00.140Z,25.70
2022-08-21T15:48:27.023Z,25.70
2022-08-21T15:50:53.652Z,25.80
2022-08-21T15:53:20.534Z,25.80
2022-08-21T15:55:47.233Z,25.80
2022-08-21T15:58:16.452Z,25.70
2022-08-21T16:00:44.348Z,25.80
2022-08-21T16:03:14.222Z,25.90
2022-08-21T16:05:41.200Z,25.90
2022-08-21T16:08:07.810Z,25.80
2022-08-21T16:10:36.038Z,26.00
2022-08-21T16:13:05.404Z,26.20
2022-08-21T16:15:32.038Z,26.30
2022-08-21T16:17:59.051Z,26.20
2022-08-21T16:20:28.471Z,26.20
2022-08-21T16:22:57.241Z,26.40
2022-08-21T16:25:24.575Z,26.40
2022-08-21T16:27:59.244Z,26.40
2022-08-21T16:30:26.701Z,26.20
2022-08-21T16:32:53.907Z,26.20
2022-08-21T16:35:21.949Z,25.90
2022-08-21T16:37:52.782Z,25.70
2022-08-21T16:40:20.537Z,25.50
2022-08-21T16:42:48.306Z,25.40
2022-08-21T16:45:19.121Z,25.40
2022-08-21T16:47:45.759Z,25.20
2022-08-21T16:50:16.714Z,25.30
2022-08-21T16:52:43.328Z,25.10
2022-08-21T16:55:09.968Z,25.00
2022-08-21T16:57:36.845Z,24.90
2022-08-21T17:00:06.579Z,24.80
2022-08-21T17:02:37.035Z,24.80
2022-08-21T17:05:04.315Z,24.70
2022-08-21T17:07:35.189Z,24.60
2022-08-21T17:10:05.016Z,24.50
2022-08-21T17:12:32.126Z,24.40
2022-08-21T17:15:05.890Z,24.30
2022-08-21T17:17:34.757Z,24.30
2022-08-21T17:20:01.481Z,24.20
2022-08-21T17:22:28.161Z,24.20
2022-08-21T17:24:54.775Z,24.10
2022-08-21T17:27:26.820Z,24.10
2022-08-21T17:29:54.751Z,24.00
2022-08-21T17:32:21.731Z,23.90
2022-08-21T17:34:48.382Z,23.80
2022-08-21T17:37:15.539Z,23.70
2022-08-21T17:39:42.246Z,23.70
2022-08-21T17:42:11.911Z,23.50
2022-08-21T17:44:41.355Z,23.50
2022-08-21T17:47:09.644Z,23.30
2022-08-21T17:49:36.395Z,23.30
2022-08-21T17:52:03.856Z,23.20
2022-08-21T17:54:30.627Z,23.10
2022-08-21T17:56:57.436Z,23.00
2022-08-21T17:59:24.874Z,23.00
2022-08-21T18:01:51.774Z,22.80
2022-08-21T18:04:18.432Z,22.70
2022-08-21T18:06:45.328Z,22.50
2022-08-21T18:09:12.904Z,22.40
2022-08-21T18:11:41.457Z,22.30
2022-08-21T18:14:08.496Z,22.20
2022-08-21T18:16:36.740Z,22.10
2022-08-21T18:19:05.868Z,22.00
2022-08-21T18:21:32.483Z,21.90
2022-08-21T18:23:59.211Z,21.80
2022-08-21T18:26:30.240Z,21.80
2022-08-21T18:28:58.731Z,21.70
2022-08-21T18:31:30.521Z,21.60
2022-08-21T18:33:58.929Z,21.50
2022-08-21T18:36:29.532Z,21.40
2022-08-21T18:39:13.463Z,21.20
2022-08-21T18:41:40.865Z,21.10
2022-08-21T18:44:07.503Z,20.90
2022-08-21T18:46:34.119Z,20.80
2022-08-21T18:49:00.725Z,20.80
2022-08-21T18:51:27.871Z,20.60
2022-08-21T18:53:55.665Z,20.50
2022-08-21T18:56:22.812Z,20.40
2022-08-21T18:58:52.245Z,20.40
2022-08-21T19:01:18.879Z,20.30
2022-08-21T19:03:45.723Z,20.30
2022-08-21T19:06:16.816Z,20.20
2022-08-21T19:08:44.861Z,20.00
2022-08-21T19:11:12.015Z,20.00
2022-08-21T19:13:39.029Z,19.90
2022-08-21T19:16:05.963Z,19.70
2022-08-21T19:18:40.234Z,19.60
2022-08-21T19:21:07.070Z,19.50
2022-08-21T19:23:35.127Z,19.40
2022-08-21T19:26:06.479Z,19.40
2022-08-21T19:28:37.425Z,19.40
2022-08-21T19:31:16.229Z,19.30
2022-08-21T19:33:47.285Z,19.30
2022-08-21T19:36:18.166Z,19.10
2022-08-21T19:38:45.990Z,19.00
2022-08-21T19:41:16.395Z,18.90
2022-08-21T19:43:50.468Z,18.90
2022-08-21T19:46:25.911Z,18.80
2022-08-21T19:48:53.841Z,18.70
2022-08-21T19:51:20.550Z,18.80
2022-08-21T19:53:50.567Z,18.70
2022-08-21T19:56:24.665Z,18.70
2022-08-21T19:58:52.440Z,18.70
2022-08-21T20:01:21.151Z,18.60
2022-08-21T20:03:53.872Z,18.60
2022-08-21T20:06:21.598Z,18.60
2022-08-21T20:08:51.099Z,18.60
2022-08-21T20:11:31.373Z,18.50
2022-08-21T20:13:58.878Z,18.30
2022-08-21T20:16:28.028Z,18.20
2022-08-21T20:18:54.744Z,18.10
2022-08-21T20:21:21.421Z,18.00
2022-08-21T20:23:49.220Z,17.90
2022-08-21T20:26:16.777Z,17.80
2022-08-21T20:28:43.953Z,17.90
2022-08-21T20:31:10.633Z,17.90
2022-08-21T20:33:37.679Z,17.90
2022-08-21T20:36:04.551Z,17.90
2022-08-21T20:38:31.155Z,17.90
2022-08-21T20:40:57.791Z,17.80
2022-08-21T20:43:25.548Z,17.70
2022-08-21T20:45:55.194Z,17.60
2022-08-21T20:48:48.946Z,17.50
2022-08-21T20:51:21.457Z,17.40
2022-08-21T20:54:21.834Z,17.40
2022-08-21T20:56:55.110Z,17.40
2022-08-21T20:59:39.854Z,17.40
2022-08-21T21:02:22.278Z,17.40
2022-08-21T21:05:02.647Z,17.30
2022-08-21T21:08:12.960Z,17.20
2022-08-21T21:10:45.820Z,17.20
2022-08-21T21:13:53.093Z,17.10
2022-08-21T21:16:51.635Z,17.10
2022-08-21T21:19:41.642Z,17.10
2022-08-21T21:22:17.478Z,16.90
2022-08-21T21:24:55.251Z,16.80
2022-08-21T21:27:41.447Z,16.70
2022-08-21T21:30:12.200Z,16.60
2022-08-21T21:32:41.278Z,16.70
2022-08-21T21:35:12.198Z,16.70
2022-08-21T21:38:16.431Z,16.70
2022-08-21T21:40:53.540Z,16.80
2022-08-21T21:43:35.007Z,16.70
2022-08-21T21:46:30.679Z,16.80
2022-08-21T21:49:29.443Z,16.70
2022-08-21T21:52:16.590Z,16.70
2022-08-21T21:54:46.044Z,16.60
2022-08-21T21:57:46.693Z,16.60
2022-08-21T22:00:26.585Z,16.50
2022-08-21T22:03:13.225Z,16.50
2022-08-21T22:06:05.661Z,16.60
2022-08-21T22:09:03.470Z,16.30
2022-08-21T22:12:02.934Z,16.30
2022-08-21T22:14:35.336Z,16.30
2022-08-21T22:17:22.586Z,16.20
2022-08-21T22:19:53.285Z,16.10
2022-08-21T22:22:22.939Z,16.10
2022-08-21T22:24:53.633Z,16.00
2022-08-21T22:27:30.901Z,16.00
2022-08-21T22:30:00.533Z,16.00
2022-08-21T22:32:39.538Z,16.00
2022-08-21T22:35:18.988Z,16.00
2022-08-21T22:37:52.116Z,16.00
2022-08-21T22:40:28.246Z,16.10
2022-08-21T22:43:22.295Z,16.00
2022-08-21T22:46:00.968Z,15.90
2022-08-21T22:48:35.052Z,15.80
2022-08-21T22:51:30.070Z,15.80
2022-08-21T22:53:59.543Z,15.80
2022-08-21T22:56:40.000Z,15.70
2022-08-21T22:59:24.971Z,15.80
2022-08-21T23:02:21.751Z,15.90
2022-08-21T23:04:50.172Z,15.80
2022-08-21T23:10:28.314Z,15.70
2022-08-21T23:13:11.439Z,15.80
2022-08-21T23:16:00.887Z,15.70
2022-08-21T23:18:37.828Z,15.60
2022-08-21T23:21:22.835Z,15.50
2022-08-21T23:24:19.690Z,15.50
2022-08-21T23:27:07.835Z,15.40
2022-08-21T23:30:18.639Z,15.30
2022-08-21T23:33:12.855Z,15.30
2022-08-21T23:36:17.775Z,15.30
2022-08-21T23:39:06.387Z,15.30
2022-08-21T23:41:51.285Z,15.20
2022-08-21T23:44:25.502Z,15.20
2022-08-21T23:47:03.487Z,15.20
2022-08-21T23:50:13.908Z,15.10
2022-08-21T23:53:22.207Z,15.20
2022-08-21T23:59:12.559Z,15.20
